Flight Track Log - Related Links

Times and Time Zones

All times are in EDT time to prevent confusion due to time zone crossing. See the CMF5HF flight status page for this flight to view local times or setup timezone preferences in your user account.

Time Position Orientation Groundspeed Altitude Reporting Facility
EDT Latitude Longitude Course Direction KTS MPH feet Rate Location/Type
Fri 10:37:45 AM 39.0000 -84.1333 113° Southeast 135 155 6,600  Level Cincinnati TRACON
Fri 10:38:09 AM 38.9903 -84.1392 205° Southwest 146 168 6,800 209 Climbing Indianapolis Center
Fri 10:39:11 AM 38.9439 -84.1169 160° South 176 203 6,900 435 Climbing Indianapolis Center
Fri 10:40:13 AM 38.8886 -84.0872 157° South 198 228 7,700 1,024 Climbing Indianapolis Center
Fri 10:41:14 AM 38.8906 -84.0108 88° East 201 231 9,000 1,220 Climbing Indianapolis Center
Fri 10:42:00 AM 38.8400 -83.8865 113° Southeast  Level FlightAware Approximate
Fri 10:42:16 AM 38.9044 -83.9453 75° East 188 216 10,200  Level Indianapolis Center
Fri 10:43:18 AM 38.9189 -83.8822 74° East 183 211 11,700 1,403 Climbing Indianapolis Center
Fri 10:44:20 AM 38.9328 -83.8194 74° East 182 209 13,100 1,306 Climbing Indianapolis Center
Fri 10:45:22 AM 38.9461 -83.7553 75° East 183 211 14,400 1,210 Climbing Indianapolis Center
Fri 10:46:24 AM 38.9608 -83.6881 74° East 191 220 15,600 1,113 Climbing Indianapolis Center
Fri 10:47:26 AM 38.9764 -83.6197 74° East 197 227 16,700 1,452 Climbing Indianapolis Center
Fri 10:48:28 AM 38.9939 -83.5392 74° East 198 228 18,600 1,366 Climbing Indianapolis Center
Fri 10:49:29 AM 39.0056 -83.4819 75° East 176 203 19,500 927 Climbing Indianapolis Center
Fri 10:50:31 AM 39.0194 -83.4186 74° East 178 205 20,500 919 Climbing Indianapolis Center
Fri 10:51:33 AM 39.0333 -83.3533 75° East 186 214 21,400 919 Climbing Indianapolis Center
Fri 10:52:35 AM 39.0475 -83.2878 74° East 188 216 22,400 919 Climbing Indianapolis Center
Fri 10:53:37 AM 39.0628 -83.2186 74° East 195 224 23,300 823 Climbing Indianapolis Center
Fri 10:54:39 AM 39.0772 -83.1497 75° East 195 224 24,100 774 Climbing Indianapolis Center
Fri 10:55:41 AM 39.0925 -83.0814 74° East 199 229 24,900 435 Climbing Indianapolis Center
Fri 10:56:43 AM 39.1094 -83.0103 73° East 206 237 25,000 49 Climbing Indianapolis Center
Fri 10:57:44 AM 39.1336 -82.9122 72° East 235 270 25,000  Level Indianapolis Center
Fri 10:58:46 AM 39.1544 -82.8275 72° East 245 282 25,000  Level Indianapolis Center
Fri 10:59:48 AM 39.1769 -82.7378 72° East 259 298 25,000  Level Indianapolis Center
Fri 11:00:50 AM 39.1981 -82.6511 73° East 260 299 25,000  Level Indianapolis Center
Fri 11:01:52 AM 39.2192 -82.5633 73° East 257 296 25,000  Level Indianapolis Center
Fri 11:02:54 AM 39.2408 -82.4722 73° East 260 299 25,000  Level Indianapolis Center
Fri 11:03:56 AM 39.2614 -82.3853 73° East 256 295 25,000  Level Indianapolis Center
Fri 11:04:57 AM 39.2869 -82.2797 73° East 257 296 25,000  Level Indianapolis Center
Fri 11:05:59 AM 39.3083 -82.1908 73° East 258 297 25,000  Level Indianapolis Center
Fri 11:07:01 AM 39.3297 -82.1019 73° East 259 298 25,000  Level Indianapolis Center
Fri 11:08:03 AM 39.3497 -82.0139 74° East 256 295 25,000  Level Indianapolis Center
Fri 11:09:05 AM 39.3711 -81.9239 73° East 260 299 25,000  Level Indianapolis Center
Fri 11:10:07 AM 39.3925 -81.8347 73° East 259 298 25,000  Level Indianapolis Center
Fri 11:11:08 AM 39.4128 -81.7447 74° East 261 300 25,000  Level Indianapolis Center
Fri 11:12:10 AM 39.4339 -81.6522 74° East 266 306 25,000  Level Indianapolis Center
Fri 11:13:12 AM 39.4600 -81.5422 73° East 265 305 25,000  Level Indianapolis Center
Fri 11:14:14 AM 39.4806 -81.4519 74° East 261 300 25,000  Level Indianapolis Center
Fri 11:15:15 AM 39.5014 -81.3600 74° East 264 304 25,000  Level Indianapolis Center
Fri 11:15:35 AM 39.5122 -81.3336 62° Northeast 261 300 25,000  Level Cleveland Center
Fri 11:16:35 AM 39.5294 -81.2425 76° East 261 300 25,000  Level Cleveland Center
Fri 11:17:35 AM 39.5531 -81.1483 72° East 261 300 25,000  Level Cleveland Center
Fri 11:18:21 AM 39.5642 -81.0819 78° East 269 310 25,000  Level Indianapolis Center
Fri 11:19:22 AM 39.5856 -80.9911 73° East 265 305 25,000  Level Indianapolis Center
Fri 11:20:24 AM 39.6067 -80.8983 74° East 266 306 25,000  Level Indianapolis Center
Fri 11:21:26 AM 39.6303 -80.7875 75° East 265 305 25,000  Level Indianapolis Center
Fri 11:22:36 AM 39.6564 -80.6908 71° East 261 300 25,000  Level Cleveland Center
Fri 11:23:36 AM 39.6772 -80.5992 74° East 261 300 25,000  Level Cleveland Center
Fri 11:24:35 AM 39.6961 -80.5075 75° East 261 300 25,000  Level Cleveland Center
Fri 11:25:35 AM 39.7147 -80.4183 75° East 261 300 25,000  Level Cleveland Center
Fri 11:26:35 AM 39.7375 -80.3267 72° East 261 300 25,000  Level Cleveland Center
Fri 11:27:35 AM 39.7561 -80.2347 75° East 261 300 25,000  Level Cleveland Center
Fri 11:28:35 AM 39.7767 -80.1428 74° East 261 300 25,000  Level Cleveland Center
Fri 11:29:35 AM 39.7950 -80.0508 75° East 261 300 25,000  Level Cleveland Center
Fri 11:30:35 AM 39.8153 -79.9614 74° East 261 300 25,000  Level Cleveland Center
Fri 11:31:35 AM 39.8336 -79.8694 75° East 261 300 25,000  Level Cleveland Center
Fri 11:32:35 AM 39.8539 -79.7772 74° East 261 300 25,000  Level Cleveland Center
Fri 11:33:35 AM 39.8739 -79.6878 74° East 261 300 25,000  Level Cleveland Center
Fri 11:34:36 AM 39.8919 -79.5956 76° East 261 300 25,000  Level Cleveland Center
Fri 11:35:35 AM 39.9119 -79.5058 74° East 261 300 25,000  Level Cleveland Center
Fri 11:36:35 AM 39.9319 -79.4108 75° East 261 300 25,000  Level Cleveland Center
Fri 11:37:35 AM 39.9497 -79.3211 75° East 261 300 25,000  Level Cleveland Center
Fri 11:38:35 AM 39.9694 -79.2286 74° East 261 300 25,000  Level Cleveland Center
Fri 11:39:35 AM 39.9872 -79.1389 75° East 261 300 25,000  Level Cleveland Center
Fri 11:40:35 AM 40.0067 -79.0464 75° East 261 300 25,000  Level Cleveland Center
Fri 11:41:35 AM 40.0242 -78.9483 77° East 261 300 25,000  Level Cleveland Center
Fri 11:42:35 AM 40.0436 -78.8556 75° East 261 300 25,000  Level Cleveland Center
Fri 11:43:35 AM 40.0589 -78.7683 77° East 256 295 25,000  Level Cleveland Center
Fri 11:44:35 AM 40.0783 -78.6756 75° East 256 295 25,000  Level Cleveland Center
Fri 11:45:35 AM 40.0956 -78.5856 76° East 256 295 25,000  Level Cleveland Center
Fri 11:46:35 AM 40.1147 -78.4956 74° East 256 295 25,000  Level Cleveland Center
Fri 11:48:47 AM 40.1528 -78.2972 76° East 260 299 25,000  Level New York Center
Fri 11:49:45 AM 40.1731 -78.2069 74° East 260 299 25,000  Level New York Center
Fri 11:50:45 AM 40.1914 -78.1136 76° East 260 299 25,000  Level New York Center
Fri 11:51:46 AM 40.2119 -78.0206 74° East 260 299 25,000  Level New York Center
Fri 11:52:46 AM 40.2342 -77.9306 72° East 260 299 25,000  Level New York Center
Fri 11:53:47 AM 40.2564 -77.8375 73° East 260 299 25,000  Level New York Center
Fri 11:54:47 AM 40.2806 -77.7475 71° East 260 299 25,000  Level New York Center
Fri 11:55:47 AM 40.3025 -77.6544 73° East 260 299 25,000  Level New York Center
Fri 11:56:45 AM 40.3244 -77.5639 72° East 260 299 25,000  Level New York Center
Fri 11:57:46 AM 40.3483 -77.4736 71° East 260 299 25,000  Level New York Center
Fri 11:58:46 AM 40.3683 -77.3803 74° East 260 299 25,000  Level New York Center
Fri 11:59:46 AM 40.3900 -77.2897 73° East 260 299 25,000 -298 Level New York Center
Fri 12:00:47 PM 40.4117 -77.1961 73° East 260 299 24,400 -744 Descending New York Center
Fri 12:01:47 PM 40.4339 -77.0972 74° East 267 307 23,500 -850 Descending New York Center
Fri 12:02:47 PM 40.4575 -77.0039 72° East 272 313 22,700 -915 Descending New York Center
Fri 12:03:45 PM 40.4789 -76.9131 73° East 266 306 21,700 -1,068 Descending New York Center
Fri 12:04:45 PM 40.4983 -76.8219 74° East 266 306 20,600 -1,140 Descending New York Center
Fri 12:05:46 PM 40.5217 -76.7311 71° East 261 300 19,400 -1,140 Descending New York Center
Fri 12:06:46 PM 40.5428 -76.6431 72° East 261 300 18,300 -893 Descending New York Center
Fri 12:07:47 PM 40.5611 -76.5625 73° East 256 295 17,600 -397 Descending New York Center
Fri 12:08:47 PM 40.5739 -76.4733 79° East 244 281 17,500 -50 Descending New York Center
Fri 12:09:47 PM 40.5858 -76.3978 78° East 236 272 17,500  Level New York Center
Fri 12:10:45 PM 40.5989 -76.3006 80° East 236 272 17,500 50 Level New York Center
Fri 12:11:46 PM 40.6114 -76.2114 80° East 236 272 17,600 50 Climbing New York Center
Fri 12:12:46 PM 40.6233 -76.1275 79° East 236 272 17,600  Level New York Center
Fri 12:13:47 PM 40.6356 -76.0464 79° East 243 280 17,600  Level New York Center
Fri 12:14:45 PM 40.6503 -75.9489 79° East 243 280 17,600  Level New York Center
Fri 12:15:45 PM 40.6625 -75.8597 80° East 243 280 17,600 -149 Level New York Center
Fri 12:16:46 PM 40.6744 -75.7703 80° East 238 274 17,300 -590 Descending New York Center
Fri 12:17:47 PM 40.6861 -75.6917 79° East 238 274 16,400 -958 Descending New York Center
Fri 12:18:45 PM 40.6978 -75.6103 79° East 238 274 15,400 -1,008 Descending New York Center
Fri 12:19:46 PM 40.7100 -75.5181 80° East 238 274 14,400 -984 Descending New York Center
Fri 12:20:47 PM 40.7214 -75.4369 79° East 233 268 13,400 -958 Descending New York Center
Fri 12:21:45 PM 40.7331 -75.3528 80° East 233 268 12,500 -958 Descending New York Center
Fri 12:22:46 PM 40.7447 -75.2686 80° East 233 268 11,500 -984 Descending New York Center
Fri 12:23:47 PM 40.7561 -75.1844 80° East 233 268 10,500 -958 Descending New York Center
Fri 12:24:45 PM 40.7653 -75.1083 81° East 228 262 9,600 -900 Descending New York Center
Fri 12:25:47 PM 40.7758 -75.0458 77° East 199 229 8,700 -984 Descending New York Center
Fri 12:26:47 PM 40.7847 -74.9725 81° East 199 229 7,600 -1,150 Descending New York Center
Fri 12:27:47 PM 40.7961 -74.8908 80° East 199 229 6,400 -1,109 Descending New York Center
Fri 12:28:46 PM 40.8069 -74.8175 79° East 197 227 5,400 -1,017 Descending New York Center
Fri 12:29:45 PM 40.8156 -74.7469 81° East 197 227 4,400 -1,100 Descending New York Center
Fri 12:30:46 PM 40.8242 -74.6786 81° East 197 227 3,200 -793 Descending New York Center
Fri 12:31:46 PM 40.8319 -74.6244 79° East 177 204 2,800 -273 Descending New York Center
Fri 12:32:14 PM 40.8333 -74.6000 86° East 161 185 2,800  Level New York TRACON
Fri 12:33:14 PM 40.8500 -74.5333 72° East 165 190 2,800  Level New York TRACON
Fri 12:34:14 PM 40.8500 -74.4833 90° East 146 168 2,800 -150 Level New York TRACON
Fri 12:35:14 PM 40.8667 -74.4333 66° East 140 161 2,500 -450 Descending New York TRACON
Fri 12:36:14 PM 40.8667 -74.3833 90° East 128 147 1,900 -550 Descending New York TRACON
Fri 12:37:14 PM 40.8667 -74.3500 90° East 97 112 1,400 -500 Descending New York TRACON
Fri 12:38:14 PM 40.8667 -74.3167 90° East 93 107 900 -500 Descending New York TRACON
Fri 12:40:00 PM 40.8752 -74.2814 78° East  Level Estimated
Fri 12:47:00 PM 40.8752 -74.2814 78° East  Level Estimated
Fri 12:48:00 PM 40.8752 -74.2814 78° East  Level Estimated
Fri 12:49:00 PM 40.8752 -74.2814 78° East  Level Estimated
Fri 12:50:00 PM 40.8752 -74.2814 78° East  Level Estimated
Fri 12:51:00 PM 40.8752 -74.2814 78° East  Level Estimated

Login

Don't have an account? Register now (free) for customized features, flight alerts, and more!